Pettit, Texas
Current Conditions -  °F | °C
As of 3:53 AM on Friday 19 Dec 2014 (Local Time) from KLBB Reporting Station
Overcast Overcast  
Wind Chill: 36°   Ceiling: 800
Heat Index: 39°   Visibility: 7mi
Dew Point: 37°   Wind: 5mph
Humidity: 93%   Direction: 80°E
Pressure: 30.11"   Gusts: NA
Location:  33.6122°N, 102.39°W
Report Text: KLBB 190953Z 08004KT 7SM OVC008 04/03 A3011 RMK AO2 RAE34 CIG 005V010 SLP183 BR ALQDS P0001 T00390028
Loading
Personal Weather Stations






























Interactive Weather Map New forecast layout! Learn more

10-Day Weather Forecast

Advertisements
Track Severe Weather on mobile